createdAt,value
2022-11-09T00:01:29.964Z,13.23
2022-11-09T00:05:31.635Z,13.24
2022-11-09T00:09:33.357Z,13.23
2022-11-09T00:13:41.084Z,13.25
2022-11-09T00:17:42.760Z,13.25
2022-11-09T00:21:44.403Z,13.22
2022-11-09T00:25:47.612Z,13.18
2022-11-09T00:29:49.272Z,13.11
2022-11-09T00:33:55.700Z,13.06
2022-11-09T00:37:57.514Z,13.03
2022-11-09T00:41:59.316Z,12.97
2022-11-09T00:46:04.696Z,12.92
2022-11-09T00:50:07.364Z,12.88
2022-11-09T00:54:10.027Z,12.83
2022-11-09T00:58:11.683Z,12.80
2022-11-09T01:02:13.519Z,12.77
2022-11-09T01:06:21.917Z,12.73
2022-11-09T01:10:23.644Z,12.70
2022-11-09T01:14:25.679Z,12.67
2022-11-09T01:18:27.442Z,12.64
2022-11-09T01:22:29.324Z,12.63
2022-11-09T01:26:31.492Z,12.62
2022-11-09T01:30:38.744Z,12.60
2022-11-09T01:34:40.905Z,12.58
2022-11-09T01:38:43.197Z,12.56
2022-11-09T01:42:44.831Z,12.54
2022-11-09T01:46:57.207Z,12.50
2022-11-09T01:51:03.140Z,12.48
2022-11-09T01:55:13.484Z,12.46
2022-11-09T01:59:21.673Z,12.48
2022-11-09T02:03:33.029Z,12.50
2022-11-09T02:07:36.757Z,12.52
2022-11-09T02:11:38.828Z,12.56
2022-11-09T02:15:45.497Z,12.56
2022-11-09T02:19:47.878Z,12.56
2022-11-09T02:23:50.784Z,12.56
2022-11-09T02:27:53.768Z,12.55
2022-11-09T02:32:05.883Z,12.53
2022-11-09T02:36:07.909Z,12.49
2022-11-09T02:40:16.678Z,12.45
2022-11-09T02:44:19.494Z,12.44
2022-11-09T02:48:21.365Z,12.38
2022-11-09T02:52:23.438Z,12.37
2022-11-09T02:56:26.896Z,12.36
2022-11-09T03:00:29.965Z,12.33
2022-11-09T03:04:31.752Z,12.31
2022-11-09T03:08:35.331Z,12.29
2022-11-09T03:12:37.930Z,12.27
2022-11-09T03:16:50.715Z,12.26
2022-11-09T03:20:53.390Z,12.21
2022-11-09T03:24:55.328Z,12.16
2022-11-09T03:28:57.022Z,12.13
2022-11-09T03:33:04.690Z,12.10
2022-11-09T03:37:06.754Z,12.07
2022-11-09T03:41:08.915Z,12.05
2022-11-09T03:45:12.768Z,12.03
2022-11-09T03:49:14.447Z,12.01
2022-11-09T03:53:16.155Z,11.99
2022-11-09T03:57:18.111Z,11.98
2022-11-09T04:01:19.961Z,11.98
2022-11-09T04:05:22.017Z,11.99
2022-11-09T04:09:23.717Z,12.01
2022-11-09T04:13:25.408Z,12.02
2022-11-09T04:17:27.163Z,12.06
2022-11-09T04:21:28.897Z,12.07
2022-11-09T04:25:33.865Z,12.09
2022-11-09T04:29:35.529Z,12.06
2022-11-09T04:33:37.284Z,12.04
2022-11-09T04:37:38.988Z,12.01
2022-11-09T04:41:40.672Z,11.99
2022-11-09T04:45:42.488Z,11.96
2022-11-09T04:49:44.149Z,11.95
2022-11-09T04:53:45.804Z,11.92
2022-11-09T04:57:47.597Z,11.88
2022-11-09T05:01:49.272Z,11.83
2022-11-09T05:05:50.933Z,11.80
2022-11-09T05:09:52.670Z,11.74
2022-11-09T05:13:54.357Z,11.75
2022-11-09T05:17:57.018Z,11.73
2022-11-09T05:22:18.615Z,11.73
2022-11-09T05:26:20.372Z,11.71
2022-11-09T05:30:22.150Z,11.70
2022-11-09T05:34:23.804Z,11.65
2022-11-09T05:38:25.858Z,11.61
2022-11-09T05:42:27.589Z,11.57
2022-11-09T05:46:31.321Z,11.53
2022-11-09T05:50:33.057Z,11.49
2022-11-09T05:54:57.497Z,11.43
2022-11-09T05:58:59.203Z,11.40
2022-11-09T06:03:09.530Z,11.35
2022-11-09T06:07:11.247Z,11.34
2022-11-09T06:11:21.560Z,11.32
2022-11-09T06:15:25.183Z,11.32
2022-11-09T06:19:26.889Z,11.29
2022-11-09T06:23:30.319Z,11.26
2022-11-09T06:27:32.004Z,11.24
2022-11-09T06:31:33.871Z,11.24
2022-11-09T06:35:35.543Z,11.23
2022-11-09T06:39:37.262Z,11.24
2022-11-09T06:43:38.956Z,11.25
2022-11-09T06:47:40.648Z,11.25
2022-11-09T06:51:42.333Z,11.24
2022-11-09T06:55:49.135Z,11.25
2022-11-09T06:59:52.415Z,11.25
2022-11-09T07:03:54.293Z,11.26
2022-11-09T07:07:56.766Z,11.25
2022-11-09T07:11:58.530Z,11.27
2022-11-09T07:16:00.299Z,11.29
2022-11-09T07:20:02.066Z,11.30
2022-11-09T07:24:04.016Z,11.35
2022-11-09T07:28:08.583Z,11.41
2022-11-09T07:32:10.240Z,11.48
2022-11-09T07:36:14.545Z,11.50
2022-11-09T07:40:19.351Z,11.50
2022-11-09T07:44:21.125Z,11.49
2022-11-09T07:48:23.093Z,11.49
2022-11-09T07:52:24.754Z,11.48
2022-11-09T07:56:26.424Z,11.49
2022-11-09T08:00:29.850Z,11.52
2022-11-09T08:04:31.551Z,11.56
2022-11-09T08:08:33.266Z,11.62
2022-11-09T08:12:37.261Z,11.69
2022-11-09T08:16:39.393Z,11.76
2022-11-09T08:20:41.064Z,11.81
2022-11-09T08:24:42.772Z,11.83
2022-11-09T08:28:44.452Z,11.86
2022-11-09T08:32:47.159Z,11.86
2022-11-09T08:36:48.843Z,11.87
2022-11-09T08:40:50.581Z,11.89
2022-11-09T08:44:52.264Z,11.90
2022-11-09T08:48:53.928Z,11.97
2022-11-09T08:52:56.219Z,12.01
2022-11-09T08:56:57.943Z,12.05
2022-11-09T09:01:00.357Z,12.08
2022-11-09T09:05:02.329Z,12.11
2022-11-09T09:09:04.008Z,12.16
2022-11-09T09:13:05.724Z,12.18
2022-11-09T09:17:07.438Z,12.21
2022-11-09T09:21:10.304Z,12.18
2022-11-09T09:25:12.009Z,12.17
2022-11-09T09:29:14.105Z,12.17
2022-11-09T09:33:15.763Z,12.22
2022-11-09T09:37:18.176Z,12.24
2022-11-09T09:41:40.031Z,12.31
2022-11-09T09:45:49.049Z,12.30
2022-11-09T09:50:04.310Z,12.28
2022-11-09T09:54:33.594Z,12.29
2022-11-09T09:58:42.191Z,12.28
2022-11-09T10:02:43.888Z,12.27
2022-11-09T10:07:21.874Z,12.27
2022-11-09T10:11:32.721Z,12.28
2022-11-09T10:15:43.076Z,12.30
2022-11-09T10:19:59.859Z,12.33
2022-11-09T10:24:09.844Z,12.37
2022-11-09T10:28:16.496Z,12.35
2022-11-09T10:32:20.658Z,12.31
2022-11-09T10:36:29.249Z,12.30
2022-11-09T10:40:38.403Z,12.31
2022-11-09T10:45:00.007Z,12.36
2022-11-09T10:49:21.777Z,12.45
2022-11-09T10:53:41.814Z,12.49
2022-11-09T10:58:15.645Z,12.60
2022-11-09T11:02:44.385Z,12.73
2022-11-09T11:07:19.693Z,12.74
2022-11-09T11:11:41.796Z,12.72
2022-11-09T11:16:01.878Z,12.71
2022-11-09T11:20:34.129Z,12.74
2022-11-09T11:24:53.971Z,12.72
2022-11-09T11:29:39.225Z,12.70
2022-11-09T11:33:59.577Z,12.71
2022-11-09T11:38:34.912Z,12.73
2022-11-09T11:43:04.330Z,12.75
2022-11-09T11:47:26.005Z,12.80
2022-11-09T11:51:46.312Z,12.86
2022-11-09T11:56:28.677Z,12.87
2022-11-09T12:01:27.169Z,12.91
2022-11-09T12:06:13.474Z,12.86
2022-11-09T12:10:54.825Z,12.84
2022-11-09T12:15:19.828Z,12.83
2022-11-09T12:19:43.021Z,12.81
2022-11-09T12:24:13.464Z,12.79
2022-11-09T12:28:52.704Z,12.81
2022-11-09T12:33:20.714Z,12.89
2022-11-09T12:37:57.451Z,12.95
2022-11-09T12:42:24.299Z,12.96
2022-11-09T12:46:54.329Z,12.99
2022-11-09T12:51:15.593Z,13.07
2022-11-09T12:55:44.101Z,13.11
2022-11-09T13:00:04.839Z,13.09
2022-11-09T13:04:25.831Z,13.13
2022-11-09T13:08:59.006Z,13.11
2022-11-09T13:13:22.952Z,13.07
2022-11-09T13:17:59.217Z,13.06
2022-11-09T13:22:23.113Z,13.07
2022-11-09T13:26:46.388Z,13.18
2022-11-09T13:31:09.820Z,13.27
2022-11-09T13:35:42.578Z,13.31
2022-11-09T13:40:30.783Z,13.31
2022-11-09T13:44:50.807Z,13.28
2022-11-09T13:49:37.372Z,13.28
2022-11-09T13:54:00.046Z,13.32
2022-11-09T13:58:34.606Z,13.31
2022-11-09T14:03:00.333Z,13.34
2022-11-09T14:07:24.459Z,13.29
2022-11-09T14:11:58.132Z,13.26
2022-11-09T14:16:39.069Z,13.28
2022-11-09T14:20:59.659Z,13.30
2022-11-09T14:25:22.988Z,13.25
2022-11-09T14:29:55.353Z,13.15
2022-11-09T14:34:17.061Z,13.09
2022-11-09T14:38:45.876Z,13.03
2022-11-09T14:43:26.378Z,12.99
2022-11-09T14:47:49.617Z,12.98
2022-11-09T14:54:14.274Z,12.94
2022-11-09T14:58:38.525Z,12.94
2022-11-09T15:03:00.112Z,12.95
2022-11-09T15:07:22.739Z,12.95
2022-11-09T15:11:43.261Z,12.91
2022-11-09T15:16:04.658Z,12.90
2022-11-09T15:20:31.706Z,12.87
2022-11-09T15:24:51.766Z,12.83
2022-11-09T15:29:44.257Z,12.80
2022-11-09T15:34:21.425Z,12.82
2022-11-09T15:38:54.824Z,12.84
2022-11-09T15:43:14.938Z,12.85
2022-11-09T15:47:37.843Z,12.85
2022-11-09T15:51:58.207Z,12.86
2022-11-09T15:56:23.850Z,12.85
2022-11-09T16:00:45.469Z,12.80
2022-11-09T16:05:06.225Z,12.78
2022-11-09T16:09:26.647Z,12.73
2022-11-09T16:13:46.676Z,12.69
2022-11-09T16:18:07.116Z,12.66
2022-11-09T16:22:33.749Z,12.59
2022-11-09T16:26:54.849Z,12.56
2022-11-09T16:31:15.217Z,12.49
2022-11-09T16:35:35.572Z,12.44
2022-11-09T16:39:57.977Z,12.40
2022-11-09T16:44:21.955Z,12.37
2022-11-09T16:48:42.212Z,12.34
2022-11-09T16:53:02.489Z,12.32
2022-11-09T16:57:22.787Z,12.30
2022-11-09T17:01:43.199Z,12.21
2022-11-09T17:06:04.098Z,12.13
2022-11-09T17:10:24.382Z,12.10
2022-11-09T17:14:44.838Z,12.06
2022-11-09T17:19:06.386Z,11.99
2022-11-09T17:23:26.601Z,11.91
2022-11-09T17:27:46.990Z,11.82
2022-11-09T17:32:09.206Z,11.78
2022-11-09T17:36:56.987Z,11.78
2022-11-09T17:41:12.924Z,11.77
2022-11-09T17:45:35.435Z,11.75
2022-11-09T17:49:55.655Z,11.74
2022-11-09T17:54:16.143Z,11.76
2022-11-09T17:58:40.341Z,11.78
2022-11-09T18:03:00.643Z,11.81
2022-11-09T18:07:20.552Z,11.83
2022-11-09T18:11:40.951Z,11.87
2022-11-09T18:16:13.306Z,11.89
2022-11-09T18:20:39.017Z,11.89
2022-11-09T18:24:59.238Z,11.86
2022-11-09T18:29:19.414Z,11.82
2022-11-09T18:33:40.688Z,11.76
2022-11-09T18:38:00.835Z,11.72
2022-11-09T18:42:21.223Z,11.68
2022-11-09T18:46:41.514Z,11.64
2022-11-09T18:51:02.340Z,11.59
2022-11-09T18:55:22.598Z,11.54
2022-11-09T18:59:42.849Z,11.52
2022-11-09T19:04:03.126Z,11.49
2022-11-09T19:08:42.553Z,11.46
2022-11-09T19:13:03.745Z,11.44
2022-11-09T19:17:24.349Z,11.48
2022-11-09T19:21:53.438Z,11.50
2022-11-09T19:26:13.949Z,11.52
2022-11-09T19:30:34.215Z,11.54
2022-11-09T19:34:54.644Z,11.51
2022-11-09T19:39:16.225Z,11.48
2022-11-09T19:43:36.624Z,11.45
2022-11-09T19:47:56.780Z,11.44
2022-11-09T19:52:17.256Z,11.38
2022-11-09T19:56:37.653Z,11.32
2022-11-09T20:01:12.139Z,11.27
2022-11-09T20:05:35.671Z,11.24
2022-11-09T20:09:56.131Z,11.20
2022-11-09T20:14:16.438Z,11.17
2022-11-09T20:18:40.185Z,11.14
2022-11-09T20:23:00.850Z,11.11
2022-11-09T20:27:21.498Z,11.09
2022-11-09T20:31:41.725Z,11.09
2022-11-09T20:36:02.249Z,11.08
2022-11-09T20:40:22.586Z,11.07
2022-11-09T20:44:42.749Z,11.06
2022-11-09T20:49:03.700Z,11.05
2022-11-09T20:53:24.279Z,11.05
2022-11-09T20:57:44.603Z,11.06
2022-11-09T21:02:05.186Z,11.07
2022-11-09T21:06:25.556Z,11.10
2022-11-09T21:10:45.830Z,11.17
2022-11-09T21:15:06.977Z,11.21
2022-11-09T21:19:27.119Z,11.21
2022-11-09T21:24:06.447Z,11.19
2022-11-09T21:28:45.986Z,11.17
2022-11-09T21:33:06.621Z,11.13
2022-11-09T21:37:27.015Z,11.12
2022-11-09T21:41:47.590Z,11.12
2022-11-09T21:46:07.568Z,11.13
2022-11-09T21:50:27.992Z,11.14
2022-11-09T21:54:48.016Z,11.12
2022-11-09T21:59:08.494Z,11.08
2022-11-09T22:03:28.635Z,11.04
2022-11-09T22:07:48.764Z,11.04
2022-11-09T22:12:35.093Z,11.04
2022-11-09T22:16:55.036Z,11.04
2022-11-09T22:21:15.605Z,11.01
2022-11-09T22:25:36.012Z,10.99
2022-11-09T22:29:56.262Z,11.02
2022-11-09T22:34:16.646Z,11.01
2022-11-09T22:38:37.081Z,11.01
2022-11-09T22:42:57.809Z,10.99
2022-11-09T22:47:18.069Z,10.97
2022-11-09T22:51:38.577Z,10.93
2022-11-09T22:56:01.051Z,10.96
2022-11-09T23:00:21.738Z,10.92
2022-11-09T23:04:41.663Z,10.92
2022-11-09T23:09:01.989Z,10.88
2022-11-09T23:13:22.632Z,10.87
2022-11-09T23:18:01.578Z,10.85
2022-11-09T23:22:21.952Z,10.81
2022-11-09T23:26:42.172Z,10.77
2022-11-09T23:31:07.672Z,10.73
2022-11-09T23:35:28.716Z,10.71
2022-11-09T23:39:48.765Z,10.70
2022-11-09T23:44:09.111Z,10.68
2022-11-09T23:48:29.474Z,10.68
2022-11-09T23:52:49.836Z,10.70
2022-11-09T23:57:10.109Z,10.65
